sensor_id;sensor_type;location;lat;lon;timestamp;P1;durP1;ratioP1;P2;durP2;ratioP2
56567;SDS011;42456;49.956;20.004;2022-12-18T00:02:11;38.10;;;16.50;;
56567;SDS011;42456;49.956;20.004;2022-12-18T00:04:37;41.40;;;15.83;;
56567;SDS011;42456;49.956;20.004;2022-12-18T00:07:04;41.33;;;16.13;;
56567;SDS011;42456;49.956;20.004;2022-12-18T00:09:30;55.00;;;19.70;;
56567;SDS011;42456;49.956;20.004;2022-12-18T00:11:56;40.50;;;15.10;;
56567;SDS011;42456;49.956;20.004;2022-12-18T00:14:23;48.43;;;18.63;;
56567;SDS011;42456;49.956;20.004;2022-12-18T00:16:49;39.77;;;15.80;;
56567;SDS011;42456;49.956;20.004;2022-12-18T00:19:15;36.90;;;14.90;;
56567;SDS011;42456;49.956;20.004;2022-12-18T00:21:42;39.73;;;15.10;;
56567;SDS011;42456;49.956;20.004;2022-12-18T00:24:09;40.63;;;15.70;;
56567;SDS011;42456;49.956;20.004;2022-12-18T00:26:37;40.77;;;15.73;;
56567;SDS011;42456;49.956;20.004;2022-12-18T00:29:09;40.87;;;14.63;;
56567;SDS011;42456;49.956;20.004;2022-12-18T00:31:39;38.07;;;14.93;;
56567;SDS011;42456;49.956;20.004;2022-12-18T00:34:06;43.30;;;16.97;;
56567;SDS011;42456;49.956;20.004;2022-12-18T00:36:38;42.30;;;16.53;;
56567;SDS011;42456;49.956;20.004;2022-12-18T00:39:05;38.20;;;14.80;;
56567;SDS011;42456;49.956;20.004;2022-12-18T00:41:32;36.07;;;14.33;;
56567;SDS011;42456;49.956;20.004;2022-12-18T00:44:13;36.77;;;15.13;;
56567;SDS011;42456;49.956;20.004;2022-12-18T00:46:42;41.73;;;15.95;;
56567;SDS011;42456;49.956;20.004;2022-12-18T00:49:12;43.67;;;16.03;;
56567;SDS011;42456;49.956;20.004;2022-12-18T00:51:40;40.27;;;14.47;;
56567;SDS011;42456;49.956;20.004;2022-12-18T00:54:07;38.00;;;15.50;;
56567;SDS011;42456;49.956;20.004;2022-12-18T00:56:34;36.53;;;14.03;;
56567;SDS011;42456;49.956;20.004;2022-12-18T00:59:03;43.07;;;17.23;;
56567;SDS011;42456;49.956;20.004;2022-12-18T01:01:30;37.13;;;15.10;;
56567;SDS011;42456;49.956;20.004;2022-12-18T01:03:59;41.17;;;15.57;;
56567;SDS011;42456;49.956;20.004;2022-12-18T01:06:27;30.92;;;13.53;;
56567;SDS011;42456;49.956;20.004;2022-12-18T01:08:54;42.67;;;15.53;;
56567;SDS011;42456;49.956;20.004;2022-12-18T01:11:20;38.47;;;16.47;;
56567;SDS011;42456;49.956;20.004;2022-12-18T01:13:47;38.87;;;14.97;;
56567;SDS011;42456;49.956;20.004;2022-12-18T01:16:15;42.40;;;15.50;;
56567;SDS011;42456;49.956;20.004;2022-12-18T01:18:42;34.90;;;14.20;;
56567;SDS011;42456;49.956;20.004;2022-12-18T01:21:10;40.07;;;14.87;;
56567;SDS011;42456;49.956;20.004;2022-12-18T01:23:40;41.10;;;16.27;;
56567;SDS011;42456;49.956;20.004;2022-12-18T01:26:07;40.20;;;15.30;;
56567;SDS011;42456;49.956;20.004;2022-12-18T01:28:37;40.80;;;15.83;;
56567;SDS011;42456;49.956;20.004;2022-12-18T01:33:52;41.57;;;15.40;;
56567;SDS011;42456;49.956;20.004;2022-12-18T01:36:27;42.03;;;15.77;;
56567;SDS011;42456;49.956;20.004;2022-12-18T01:38:56;42.67;;;16.03;;
56567;SDS011;42456;49.956;20.004;2022-12-18T01:41:27;37.37;;;14.10;;
56567;SDS011;42456;49.956;20.004;2022-12-18T01:43:58;40.00;;;15.60;;
56567;SDS011;42456;49.956;20.004;2022-12-18T01:46:25;43.67;;;15.90;;
56567;SDS011;42456;49.956;20.004;2022-12-18T01:48:56;36.77;;;13.60;;
56567;SDS011;42456;49.956;20.004;2022-12-18T01:51:25;43.40;;;15.63;;
56567;SDS011;42456;49.956;20.004;2022-12-18T01:53:54;38.43;;;15.23;;
56567;SDS011;42456;49.956;20.004;2022-12-18T01:56:21;37.53;;;14.00;;
56567;SDS011;42456;49.956;20.004;2022-12-18T02:01:23;38.87;;;14.37;;
56567;SDS011;42456;49.956;20.004;2022-12-18T02:03:50;36.80;;;14.83;;
56567;SDS011;42456;49.956;20.004;2022-12-18T02:06:22;34.43;;;13.63;;
56567;SDS011;42456;49.956;20.004;2022-12-18T02:17:19;42.38;;;14.87;;
56567;SDS011;42456;49.956;20.004;2022-12-18T02:28:40;43.33;;;15.83;;
56567;SDS011;42456;49.956;20.004;2022-12-18T02:31:06;38.20;;;15.17;;
56567;SDS011;42456;49.956;20.004;2022-12-18T02:33:36;37.93;;;13.77;;
56567;SDS011;42456;49.956;20.004;2022-12-18T02:36:05;38.93;;;15.03;;
56567;SDS011;42456;49.956;20.004;2022-12-18T02:38:34;39.20;;;16.13;;
56567;SDS011;42456;49.956;20.004;2022-12-18T02:41:01;39.60;;;16.40;;
56567;SDS011;42456;49.956;20.004;2022-12-18T02:43:29;38.67;;;15.33;;
56567;SDS011;42456;49.956;20.004;2022-12-18T02:45:57;41.23;;;15.90;;
56567;SDS011;42456;49.956;20.004;2022-12-18T02:48:31;38.83;;;14.83;;
56567;SDS011;42456;49.956;20.004;2022-12-18T02:51:03;37.83;;;12.70;;
56567;SDS011;42456;49.956;20.004;2022-12-18T02:53:43;38.80;;;14.67;;
56567;SDS011;42456;49.956;20.004;2022-12-18T02:56:26;39.17;;;15.83;;
56567;SDS011;42456;49.956;20.004;2022-12-18T02:58:59;37.43;;;15.03;;
56567;SDS011;42456;49.956;20.004;2022-12-18T03:04:18;37.43;;;13.77;;
56567;SDS011;42456;49.956;20.004;2022-12-18T03:07:10;33.83;;;12.90;;
56567;SDS011;42456;49.956;20.004;2022-12-18T03:09:42;37.27;;;13.87;;
56567;SDS011;42456;49.956;20.004;2022-12-18T03:12:14;41.57;;;15.30;;
56567;SDS011;42456;49.956;20.004;2022-12-18T03:14:50;37.63;;;16.27;;
56567;SDS011;42456;49.956;20.004;2022-12-18T03:17:35;40.03;;;15.17;;
56567;SDS011;42456;49.956;20.004;2022-12-18T03:20:07;37.70;;;14.83;;
56567;SDS011;42456;49.956;20.004;2022-12-18T03:22:37;34.23;;;13.27;;
56567;SDS011;42456;49.956;20.004;2022-12-18T03:25:06;37.70;;;14.77;;
56567;SDS011;42456;49.956;20.004;2022-12-18T03:27:36;39.03;;;13.77;;
56567;SDS011;42456;49.956;20.004;2022-12-18T03:30:08;36.60;;;15.27;;
56567;SDS011;42456;49.956;20.004;2022-12-18T03:32:47;39.77;;;14.97;;
56567;SDS011;42456;49.956;20.004;2022-12-18T03:35:26;33.73;;;12.83;;
56567;SDS011;42456;49.956;20.004;2022-12-18T03:37:55;37.43;;;15.27;;
56567;SDS011;42456;49.956;20.004;2022-12-18T03:40:23;35.60;;;14.73;;
56567;SDS011;42456;49.956;20.004;2022-12-18T03:43:02;35.27;;;13.87;;
56567;SDS011;42456;49.956;20.004;2022-12-18T03:45:42;34.20;;;13.87;;
56567;SDS011;42456;49.956;20.004;2022-12-18T03:53:49;35.00;;;14.20;;
56567;SDS011;42456;49.956;20.004;2022-12-18T03:56:25;44.73;;;15.70;;
56567;SDS011;42456;49.956;20.004;2022-12-18T03:58:55;40.10;;;15.37;;
56567;SDS011;42456;49.956;20.004;2022-12-18T04:01:43;32.80;;;12.88;;
56567;SDS011;42456;49.956;20.004;2022-12-18T04:04:04;34.03;;;13.58;;
56567;SDS011;42456;49.956;20.004;2022-12-18T04:06:32;40.70;;;15.57;;
56567;SDS011;42456;49.956;20.004;2022-12-18T04:09:00;35.73;;;13.77;;
56567;SDS011;42456;49.956;20.004;2022-12-18T04:11:26;36.03;;;14.03;;
56567;SDS011;42456;49.956;20.004;2022-12-18T04:13:57;35.00;;;14.17;;
56567;SDS011;42456;49.956;20.004;2022-12-18T04:16:23;38.55;;;14.10;;
56567;SDS011;42456;49.956;20.004;2022-12-18T04:18:50;34.70;;;13.30;;
56567;SDS011;42456;49.956;20.004;2022-12-18T04:21:17;42.87;;;15.40;;
56567;SDS011;42456;49.956;20.004;2022-12-18T04:23:44;35.50;;;14.73;;
56567;SDS011;42456;49.956;20.004;2022-12-18T04:26:10;32.67;;;13.20;;
56567;SDS011;42456;49.956;20.004;2022-12-18T04:28:37;36.50;;;14.57;;
56567;SDS011;42456;49.956;20.004;2022-12-18T04:31:03;34.23;;;13.17;;
56567;SDS011;42456;49.956;20.004;2022-12-18T04:33:29;33.37;;;12.27;;
56567;SDS011;42456;49.956;20.004;2022-12-18T04:35:56;32.23;;;12.43;;
56567;SDS011;42456;49.956;20.004;2022-12-18T04:38:23;35.97;;;14.13;;
56567;SDS011;42456;49.956;20.004;2022-12-18T04:40:49;39.33;;;14.30;;
56567;SDS011;42456;49.956;20.004;2022-12-18T04:43:16;40.23;;;14.87;;
56567;SDS011;42456;49.956;20.004;2022-12-18T04:45:42;35.60;;;14.43;;
56567;SDS011;42456;49.956;20.004;2022-12-18T04:48:08;37.07;;;14.00;;
56567;SDS011;42456;49.956;20.004;2022-12-18T04:50:35;33.33;;;12.60;;
56567;SDS011;42456;49.956;20.004;2022-12-18T04:53:01;38.30;;;14.50;;
56567;SDS011;42456;49.956;20.004;2022-12-18T04:55:27;30.33;;;12.27;;
56567;SDS011;42456;49.956;20.004;2022-12-18T04:57:53;38.83;;;15.13;;
56567;SDS011;42456;49.956;20.004;2022-12-18T05:00:20;34.57;;;13.63;;
56567;SDS011;42456;49.956;20.004;2022-12-18T05:02:47;37.90;;;13.47;;
56567;SDS011;42456;49.956;20.004;2022-12-18T05:05:13;36.03;;;13.20;;
56567;SDS011;42456;49.956;20.004;2022-12-18T05:07:40;33.03;;;13.03;;
56567;SDS011;42456;49.956;20.004;2022-12-18T05:10:07;36.13;;;13.47;;
56567;SDS011;42456;49.956;20.004;2022-12-18T05:12:34;35.87;;;13.90;;
56567;SDS011;42456;49.956;20.004;2022-12-18T05:15:02;36.10;;;13.77;;
56567;SDS011;42456;49.956;20.004;2022-12-18T05:17:29;34.40;;;13.60;;
56567;SDS011;42456;49.956;20.004;2022-12-18T05:19:55;35.33;;;13.60;;
56567;SDS011;42456;49.956;20.004;2022-12-18T05:22:21;37.30;;;14.30;;
56567;SDS011;42456;49.956;20.004;2022-12-18T05:24:48;37.60;;;13.60;;
56567;SDS011;42456;49.956;20.004;2022-12-18T05:27:14;36.43;;;12.37;;
56567;SDS011;42456;49.956;20.004;2022-12-18T05:29:41;32.30;;;13.27;;
56567;SDS011;42456;49.956;20.004;2022-12-18T05:32:07;38.50;;;14.53;;
56567;SDS011;42456;49.956;20.004;2022-12-18T05:34:33;36.20;;;13.60;;
56567;SDS011;42456;49.956;20.004;2022-12-18T05:37:00;33.70;;;13.83;;
56567;SDS011;42456;49.956;20.004;2022-12-18T05:39:29;39.98;;;14.13;;
56567;SDS011;42456;49.956;20.004;2022-12-18T05:41:55;33.13;;;12.93;;
56567;SDS011;42456;49.956;20.004;2022-12-18T05:44:22;34.97;;;13.13;;
56567;SDS011;42456;49.956;20.004;2022-12-18T05:46:48;39.60;;;13.43;;
56567;SDS011;42456;49.956;20.004;2022-12-18T05:49:14;35.10;;;13.23;;
56567;SDS011;42456;49.956;20.004;2022-12-18T05:51:41;39.10;;;15.10;;
56567;SDS011;42456;49.956;20.004;2022-12-18T05:54:07;38.50;;;14.27;;
56567;SDS011;42456;49.956;20.004;2022-12-18T05:56:33;34.50;;;14.07;;
56567;SDS011;42456;49.956;20.004;2022-12-18T05:59:00;38.93;;;14.60;;
56567;SDS011;42456;49.956;20.004;2022-12-18T06:01:26;35.63;;;15.90;;
56567;SDS011;42456;49.956;20.004;2022-12-18T06:03:53;35.83;;;13.30;;
56567;SDS011;42456;49.956;20.004;2022-12-18T06:06:25;44.87;;;16.07;;
56567;SDS011;42456;49.956;20.004;2022-12-18T06:08:51;36.53;;;13.53;;
56567;SDS011;42456;49.956;20.004;2022-12-18T06:11:23;37.67;;;14.07;;
56567;SDS011;42456;49.956;20.004;2022-12-18T06:13:54;35.43;;;14.20;;
56567;SDS011;42456;49.956;20.004;2022-12-18T06:16:22;34.30;;;13.07;;
56567;SDS011;42456;49.956;20.004;2022-12-18T06:18:48;33.77;;;13.27;;
56567;SDS011;42456;49.956;20.004;2022-12-18T06:21:14;37.33;;;13.20;;
56567;SDS011;42456;49.956;20.004;2022-12-18T06:23:41;39.53;;;16.10;;
56567;SDS011;42456;49.956;20.004;2022-12-18T06:26:08;41.47;;;15.43;;
56567;SDS011;42456;49.956;20.004;2022-12-18T06:28:37;38.48;;;14.25;;
56567;SDS011;42456;49.956;20.004;2022-12-18T06:31:04;37.00;;;13.87;;
56567;SDS011;42456;49.956;20.004;2022-12-18T06:33:31;39.63;;;14.83;;
56567;SDS011;42456;49.956;20.004;2022-12-18T06:36:04;37.13;;;14.30;;
56567;SDS011;42456;49.956;20.004;2022-12-18T06:38:35;37.97;;;14.13;;
56567;SDS011;42456;49.956;20.004;2022-12-18T06:41:22;32.73;;;13.58;;
56567;SDS011;42456;49.956;20.004;2022-12-18T06:43:36;35.03;;;13.53;;
56567;SDS011;42456;49.956;20.004;2022-12-18T06:46:03;37.70;;;14.20;;
56567;SDS011;42456;49.956;20.004;2022-12-18T06:48:30;36.37;;;12.70;;
56567;SDS011;42456;49.956;20.004;2022-12-18T06:50:57;38.30;;;13.83;;
56567;SDS011;42456;49.956;20.004;2022-12-18T06:53:23;34.53;;;12.77;;
56567;SDS011;42456;49.956;20.004;2022-12-18T06:55:50;34.93;;;13.53;;
56567;SDS011;42456;49.956;20.004;2022-12-18T06:58:16;35.47;;;13.33;;
56567;SDS011;42456;49.956;20.004;2022-12-18T07:00:43;32.77;;;13.13;;
56567;SDS011;42456;49.956;20.004;2022-12-18T07:03:09;40.20;;;13.70;;
56567;SDS011;42456;49.956;20.004;2022-12-18T07:05:39;34.80;;;13.67;;
56567;SDS011;42456;49.956;20.004;2022-12-18T07:08:07;30.90;;;12.80;;
56567;SDS011;42456;49.956;20.004;2022-12-18T07:10:33;34.63;;;13.97;;
56567;SDS011;42456;49.956;20.004;2022-12-18T07:13:01;32.63;;;13.20;;
56567;SDS011;42456;49.956;20.004;2022-12-18T07:15:28;35.27;;;12.77;;
56567;SDS011;42456;49.956;20.004;2022-12-18T07:17:54;33.67;;;12.30;;
56567;SDS011;42456;49.956;20.004;2022-12-18T07:20:20;33.23;;;12.87;;
56567;SDS011;42456;49.956;20.004;2022-12-18T07:22:46;31.13;;;12.13;;
56567;SDS011;42456;49.956;20.004;2022-12-18T07:25:13;33.40;;;13.13;;
56567;SDS011;42456;49.956;20.004;2022-12-18T07:27:39;34.90;;;13.53;;
56567;SDS011;42456;49.956;20.004;2022-12-18T07:30:06;33.87;;;12.93;;
56567;SDS011;42456;49.956;20.004;2022-12-18T07:32:34;36.90;;;15.13;;
56567;SDS011;42456;49.956;20.004;2022-12-18T07:35:00;33.30;;;12.40;;
56567;SDS011;42456;49.956;20.004;2022-12-18T07:37:27;33.03;;;12.80;;
56567;SDS011;42456;49.956;20.004;2022-12-18T07:39:53;32.60;;;13.47;;
56567;SDS011;42456;49.956;20.004;2022-12-18T07:42:19;33.63;;;13.27;;
56567;SDS011;42456;49.956;20.004;2022-12-18T07:44:59;35.70;;;13.47;;
56567;SDS011;42456;49.956;20.004;2022-12-18T07:47:27;37.70;;;14.53;;
56567;SDS011;42456;49.956;20.004;2022-12-18T07:49:55;38.13;;;13.25;;
56567;SDS011;42456;49.956;20.004;2022-12-18T07:52:22;32.20;;;12.73;;
56567;SDS011;42456;49.956;20.004;2022-12-18T07:54:48;37.87;;;13.70;;
56567;SDS011;42456;49.956;20.004;2022-12-18T07:57:15;32.57;;;13.60;;
56567;SDS011;42456;49.956;20.004;2022-12-18T07:59:42;34.73;;;14.40;;
56567;SDS011;42456;49.956;20.004;2022-12-18T08:02:08;39.53;;;15.07;;
56567;SDS011;42456;49.956;20.004;2022-12-18T08:04:35;37.63;;;14.60;;
56567;SDS011;42456;49.956;20.004;2022-12-18T08:07:01;39.47;;;15.60;;
56567;SDS011;42456;49.956;20.004;2022-12-18T08:09:27;32.80;;;13.93;;
56567;SDS011;42456;49.956;20.004;2022-12-18T08:11:54;38.10;;;14.73;;
56567;SDS011;42456;49.956;20.004;2022-12-18T08:14:20;33.70;;;14.00;;
56567;SDS011;42456;49.956;20.004;2022-12-18T08:16:47;34.47;;;14.27;;
56567;SDS011;42456;49.956;20.004;2022-12-18T08:19:13;34.57;;;14.10;;
56567;SDS011;42456;49.956;20.004;2022-12-18T08:21:39;32.70;;;14.47;;
56567;SDS011;42456;49.956;20.004;2022-12-18T08:24:06;38.60;;;15.20;;
56567;SDS011;42456;49.956;20.004;2022-12-18T08:26:33;39.60;;;14.87;;
56567;SDS011;42456;49.956;20.004;2022-12-18T08:29:00;38.33;;;14.57;;
56567;SDS011;42456;49.956;20.004;2022-12-18T08:31:27;38.60;;;14.97;;
56567;SDS011;42456;49.956;20.004;2022-12-18T08:33:55;35.67;;;15.07;;
56567;SDS011;42456;49.956;20.004;2022-12-18T08:36:21;34.23;;;15.17;;
56567;SDS011;42456;49.956;20.004;2022-12-18T08:38:48;32.77;;;13.87;;
56567;SDS011;42456;49.956;20.004;2022-12-18T08:41:15;38.90;;;14.40;;
56567;SDS011;42456;49.956;20.004;2022-12-18T08:43:42;34.20;;;14.27;;
56567;SDS011;42456;49.956;20.004;2022-12-18T08:46:23;34.33;;;13.87;;
56567;SDS011;42456;49.956;20.004;2022-12-18T08:48:52;31.93;;;13.70;;
56567;SDS011;42456;49.956;20.004;2022-12-18T08:51:21;30.08;;;13.20;;
56567;SDS011;42456;49.956;20.004;2022-12-18T08:53:48;42.87;;;16.63;;
56567;SDS011;42456;49.956;20.004;2022-12-18T08:56:14;34.23;;;15.33;;
56567;SDS011;42456;49.956;20.004;2022-12-18T08:58:41;38.57;;;15.37;;
56567;SDS011;42456;49.956;20.004;2022-12-18T09:01:09;39.10;;;16.97;;
56567;SDS011;42456;49.956;20.004;2022-12-18T09:03:37;41.08;;;18.27;;
56567;SDS011;42456;49.956;20.004;2022-12-18T09:06:04;46.03;;;17.67;;
56567;SDS011;42456;49.956;20.004;2022-12-18T09:08:31;39.17;;;16.30;;
56567;SDS011;42456;49.956;20.004;2022-12-18T09:10:57;39.03;;;16.43;;
56567;SDS011;42456;49.956;20.004;2022-12-18T09:13:24;42.77;;;17.60;;
56567;SDS011;42456;49.956;20.004;2022-12-18T09:15:51;39.83;;;16.87;;
56567;SDS011;42456;49.956;20.004;2022-12-18T09:18:19;40.03;;;17.17;;
56567;SDS011;42456;49.956;20.004;2022-12-18T09:20:47;34.23;;;14.97;;
56567;SDS011;42456;49.956;20.004;2022-12-18T09:23:15;36.80;;;13.60;;
56567;SDS011;42456;49.956;20.004;2022-12-18T09:25:41;34.53;;;14.20;;
56567;SDS011;42456;49.956;20.004;2022-12-18T09:28:15;38.83;;;15.83;;
56567;SDS011;42456;49.956;20.004;2022-12-18T09:30:45;40.43;;;17.93;;
56567;SDS011;42456;49.956;20.004;2022-12-18T09:33:14;38.97;;;15.87;;
56567;SDS011;42456;49.956;20.004;2022-12-18T09:35:42;41.27;;;16.40;;
56567;SDS011;42456;49.956;20.004;2022-12-18T09:38:17;41.73;;;16.47;;
56567;SDS011;42456;49.956;20.004;2022-12-18T09:40:48;39.23;;;16.10;;
56567;SDS011;42456;49.956;20.004;2022-12-18T09:43:20;40.20;;;15.63;;
56567;SDS011;42456;49.956;20.004;2022-12-18T09:45:55;41.00;;;16.43;;
56567;SDS011;42456;49.956;20.004;2022-12-18T09:48:34;40.07;;;15.60;;
56567;SDS011;42456;49.956;20.004;2022-12-18T09:51:05;41.80;;;16.13;;
56567;SDS011;42456;49.956;20.004;2022-12-18T09:53:38;39.67;;;16.67;;
56567;SDS011;42456;49.956;20.004;2022-12-18T09:56:10;40.50;;;16.62;;
56567;SDS011;42456;49.956;20.004;2022-12-18T09:58:55;45.17;;;16.80;;
56567;SDS011;42456;49.956;20.004;2022-12-18T10:01:25;42.47;;;15.63;;
56567;SDS011;42456;49.956;20.004;2022-12-18T10:03:53;38.37;;;13.97;;
56567;SDS011;42456;49.956;20.004;2022-12-18T10:06:22;42.67;;;16.07;;
56567;SDS011;42456;49.956;20.004;2022-12-18T10:12:02;45.87;;;20.20;;
56567;SDS011;42456;49.956;20.004;2022-12-18T10:14:57;43.53;;;17.13;;
56567;SDS011;42456;49.956;20.004;2022-12-18T10:26:03;40.27;;;17.53;;
56567;SDS011;42456;49.956;20.004;2022-12-18T10:28:33;41.83;;;16.27;;
56567;SDS011;42456;49.956;20.004;2022-12-18T10:31:02;47.23;;;19.43;;
56567;SDS011;42456;49.956;20.004;2022-12-18T10:36:08;39.07;;;16.73;;
56567;SDS011;42456;49.956;20.004;2022-12-18T10:38:35;38.03;;;16.00;;
56567;SDS011;42456;49.956;20.004;2022-12-18T10:41:05;46.70;;;20.83;;
56567;SDS011;42456;49.956;20.004;2022-12-18T10:43:46;47.13;;;19.60;;
56567;SDS011;42456;49.956;20.004;2022-12-18T10:46:17;50.93;;;21.60;;
56567;SDS011;42456;49.956;20.004;2022-12-18T10:48:55;47.73;;;20.67;;
56567;SDS011;42456;49.956;20.004;2022-12-18T10:51:27;49.57;;;21.57;;
56567;SDS011;42456;49.956;20.004;2022-12-18T10:56:35;57.07;;;25.67;;
56567;SDS011;42456;49.956;20.004;2022-12-18T10:59:04;57.47;;;26.87;;
56567;SDS011;42456;49.956;20.004;2022-12-18T11:04:23;59.17;;;25.60;;
56567;SDS011;42456;49.956;20.004;2022-12-18T11:07:02;59.30;;;27.13;;
56567;SDS011;42456;49.956;20.004;2022-12-18T11:09:38;50.60;;;21.03;;
56567;SDS011;42456;49.956;20.004;2022-12-18T11:12:05;43.70;;;19.47;;
56567;SDS011;42456;49.956;20.004;2022-12-18T11:14:46;45.15;;;16.93;;
56567;SDS011;42456;49.956;20.004;2022-12-18T11:22:58;47.40;;;18.97;;
56567;SDS011;42456;49.956;20.004;2022-12-18T11:25:31;40.53;;;16.67;;
56567;SDS011;42456;49.956;20.004;2022-12-18T11:28:00;40.67;;;18.07;;
56567;SDS011;42456;49.956;20.004;2022-12-18T11:30:44;44.57;;;17.23;;
56567;SDS011;42456;49.956;20.004;2022-12-18T11:33:15;44.17;;;18.90;;
56567;SDS011;42456;49.956;20.004;2022-12-18T11:35:54;41.70;;;16.90;;
56567;SDS011;42456;49.956;20.004;2022-12-18T11:38:28;44.07;;;17.73;;
56567;SDS011;42456;49.956;20.004;2022-12-18T11:41:05;38.90;;;15.03;;
56567;SDS011;42456;49.956;20.004;2022-12-18T11:46:32;41.07;;;16.30;;
56567;SDS011;42456;49.956;20.004;2022-12-18T11:51:50;33.57;;;13.80;;
56567;SDS011;42456;49.956;20.004;2022-12-18T11:54:28;39.60;;;15.00;;
56567;SDS011;42456;49.956;20.004;2022-12-18T12:05:20;36.68;;;16.52;;
56567;SDS011;42456;49.956;20.004;2022-12-18T12:10:57;37.63;;;16.67;;
56567;SDS011;42456;49.956;20.004;2022-12-18T12:13:43;40.15;;;16.25;;
56567;SDS011;42456;49.956;20.004;2022-12-18T12:19:39;29.10;;;11.77;;
56567;SDS011;42456;49.956;20.004;2022-12-18T12:24:59;33.83;;;13.63;;
56567;SDS011;42456;49.956;20.004;2022-12-18T12:30:47;31.37;;;11.93;;
56567;SDS011;42456;49.956;20.004;2022-12-18T12:33:22;31.23;;;13.10;;
56567;SDS011;42456;49.956;20.004;2022-12-18T12:38:43;33.37;;;14.00;;
56567;SDS011;42456;49.956;20.004;2022-12-18T12:41:20;35.10;;;14.50;;
56567;SDS011;42456;49.956;20.004;2022-12-18T12:44:05;34.83;;;14.47;;
56567;SDS011;42456;49.956;20.004;2022-12-18T12:46:37;34.70;;;15.00;;
56567;SDS011;42456;49.956;20.004;2022-12-18T12:49:11;40.07;;;14.53;;
56567;SDS011;42456;49.956;20.004;2022-12-18T12:51:52;37.60;;;15.47;;
56567;SDS011;42456;49.956;20.004;2022-12-18T12:54:39;34.65;;;15.05;;
56567;SDS011;42456;49.956;20.004;2022-12-18T12:57:11;35.53;;;15.13;;
56567;SDS011;42456;49.956;20.004;2022-12-18T12:59:57;36.40;;;14.83;;
56567;SDS011;42456;49.956;20.004;2022-12-18T13:08:26;37.73;;;14.97;;
56567;SDS011;42456;49.956;20.004;2022-12-18T13:10:59;39.77;;;14.90;;
56567;SDS011;42456;49.956;20.004;2022-12-18T13:13:51;38.97;;;16.23;;
56567;SDS011;42456;49.956;20.004;2022-12-18T13:16:21;39.45;;;16.12;;
56567;SDS011;42456;49.956;20.004;2022-12-18T13:18:50;42.58;;;17.07;;
56567;SDS011;42456;49.956;20.004;2022-12-18T13:21:30;39.08;;;16.93;;
56567;SDS011;42456;49.956;20.004;2022-12-18T13:26:41;36.13;;;14.47;;
56567;SDS011;42456;49.956;20.004;2022-12-18T13:29:08;37.13;;;15.37;;
56567;SDS011;42456;49.956;20.004;2022-12-18T13:34:24;33.73;;;14.10;;
56567;SDS011;42456;49.956;20.004;2022-12-18T13:37:33;36.15;;;14.58;;
56567;SDS011;42456;49.956;20.004;2022-12-18T13:39:41;36.80;;;14.83;;
56567;SDS011;42456;49.956;20.004;2022-12-18T13:44:41;36.00;;;15.03;;
56567;SDS011;42456;49.956;20.004;2022-12-18T13:47:54;34.87;;;14.03;;
56567;SDS011;42456;49.956;20.004;2022-12-18T13:49:52;31.57;;;13.93;;
56567;SDS011;42456;49.956;20.004;2022-12-18T13:52:22;36.57;;;15.07;;
56567;SDS011;42456;49.956;20.004;2022-12-18T13:54:57;38.30;;;16.20;;
56567;SDS011;42456;49.956;20.004;2022-12-18T13:57:31;35.60;;;15.33;;
56567;SDS011;42456;49.956;20.004;2022-12-18T14:02:53;32.00;;;13.53;;
56567;SDS011;42456;49.956;20.004;2022-12-18T14:07:53;34.97;;;15.03;;
56567;SDS011;42456;49.956;20.004;2022-12-18T14:10:20;43.17;;;15.50;;
56567;SDS011;42456;49.956;20.004;2022-12-18T14:12:48;39.07;;;17.43;;
56567;SDS011;42456;49.956;20.004;2022-12-18T14:18:24;37.67;;;15.67;;
56567;SDS011;42456;49.956;20.004;2022-12-18T14:20:59;38.97;;;16.20;;
56567;SDS011;42456;49.956;20.004;2022-12-18T14:28:55;34.95;;;15.35;;
56567;SDS011;42456;49.956;20.004;2022-12-18T14:31:24;37.23;;;15.30;;
56567;SDS011;42456;49.956;20.004;2022-12-18T14:33:53;38.07;;;16.17;;
56567;SDS011;42456;49.956;20.004;2022-12-18T14:36:25;36.83;;;16.43;;
56567;SDS011;42456;49.956;20.004;2022-12-18T14:38:51;37.97;;;18.37;;
56567;SDS011;42456;49.956;20.004;2022-12-18T14:41:23;39.87;;;17.63;;
56567;SDS011;42456;49.956;20.004;2022-12-18T14:43:51;39.60;;;17.20;;
56567;SDS011;42456;49.956;20.004;2022-12-18T14:49:04;40.37;;;16.63;;
56567;SDS011;42456;49.956;20.004;2022-12-18T14:51:47;46.00;;;17.20;;
56567;SDS011;42456;49.956;20.004;2022-12-18T14:54:20;44.07;;;19.40;;
56567;SDS011;42456;49.956;20.004;2022-12-18T14:56:55;39.67;;;17.23;;
56567;SDS011;42456;49.956;20.004;2022-12-18T14:59:27;42.23;;;18.53;;
56567;SDS011;42456;49.956;20.004;2022-12-18T15:02:10;44.15;;;19.30;;
56567;SDS011;42456;49.956;20.004;2022-12-18T15:07:46;47.93;;;19.40;;
56567;SDS011;42456;49.956;20.004;2022-12-18T15:10:16;45.33;;;19.37;;
56567;SDS011;42456;49.956;20.004;2022-12-18T15:26:11;47.00;;;19.98;;
56567;SDS011;42456;49.956;20.004;2022-12-18T15:28:50;55.83;;;22.95;;
56567;SDS011;42456;49.956;20.004;2022-12-18T15:31:24;49.97;;;21.37;;
56567;SDS011;42456;49.956;20.004;2022-12-18T15:36:28;47.13;;;19.90;;
56567;SDS011;42456;49.956;20.004;2022-12-18T15:38:55;48.33;;;18.63;;
56567;SDS011;42456;49.956;20.004;2022-12-18T15:41:23;53.83;;;22.27;;
56567;SDS011;42456;49.956;20.004;2022-12-18T15:43:50;47.73;;;20.37;;
56567;SDS011;42456;49.956;20.004;2022-12-18T15:46:19;39.57;;;17.67;;
56567;SDS011;42456;49.956;20.004;2022-12-18T15:48:48;58.83;;;22.82;;
56567;SDS011;42456;49.956;20.004;2022-12-18T15:54:02;50.77;;;18.43;;
56567;SDS011;42456;49.956;20.004;2022-12-18T15:56:31;55.03;;;21.53;;
56567;SDS011;42456;49.956;20.004;2022-12-18T15:59:16;50.67;;;19.33;;
56567;SDS011;42456;49.956;20.004;2022-12-18T16:01:43;54.93;;;21.57;;
56567;SDS011;42456;49.956;20.004;2022-12-18T16:04:12;54.40;;;22.17;;
56567;SDS011;42456;49.956;20.004;2022-12-18T16:06:42;58.00;;;23.15;;
56567;SDS011;42456;49.956;20.004;2022-12-18T16:09:08;66.00;;;22.07;;
56567;SDS011;42456;49.956;20.004;2022-12-18T16:11:35;57.53;;;20.80;;
56567;SDS011;42456;49.956;20.004;2022-12-18T16:14:25;53.43;;;22.00;;
56567;SDS011;42456;49.956;20.004;2022-12-18T16:16:47;58.90;;;25.43;;
56567;SDS011;42456;49.956;20.004;2022-12-18T16:19:19;55.63;;;22.83;;
56567;SDS011;42456;49.956;20.004;2022-12-18T16:21:48;63.33;;;26.83;;
56567;SDS011;42456;49.956;20.004;2022-12-18T16:24:20;62.00;;;25.57;;
56567;SDS011;42456;49.956;20.004;2022-12-18T16:26:50;56.10;;;23.10;;
56567;SDS011;42456;49.956;20.004;2022-12-18T16:29:18;62.20;;;25.10;;
56567;SDS011;42456;49.956;20.004;2022-12-18T16:31:47;74.22;;;25.40;;
56567;SDS011;42456;49.956;20.004;2022-12-18T16:34:18;60.60;;;24.13;;
56567;SDS011;42456;49.956;20.004;2022-12-18T16:36:58;64.13;;;23.97;;
56567;SDS011;42456;49.956;20.004;2022-12-18T16:39:23;62.00;;;24.03;;
56567;SDS011;42456;49.956;20.004;2022-12-18T16:41:50;73.80;;;25.57;;
56567;SDS011;42456;49.956;20.004;2022-12-18T16:44:16;61.40;;;23.23;;